createdAt,value
2023-04-16T00:00:54.046Z,210.3077
2023-04-16T00:01:56.962Z,210.2308
2023-04-16T00:02:59.446Z,208.7692
2023-04-16T00:04:01.989Z,211.3077
2023-04-16T00:05:04.415Z,215.8462
2023-04-16T00:06:07.015Z,217.3846
2023-04-16T00:07:09.514Z,213.1538
2023-04-16T00:08:12.116Z,215.7692
2023-04-16T00:09:14.685Z,213.9231
2023-04-16T00:10:17.339Z,215.6154
2023-04-16T00:11:19.839Z,215.0769
2023-04-16T00:12:22.483Z,216.0000
2023-04-16T00:13:24.993Z,213.9231
2023-04-16T00:14:27.610Z,218.6154
2023-04-16T00:15:30.155Z,216.7692
2023-04-16T00:16:32.849Z,212.0769
2023-04-16T00:17:35.336Z,218.4615
2023-04-16T00:18:38.251Z,220.0000
2023-04-16T00:19:40.496Z,219.1538
2023-04-16T00:20:43.105Z,222.1538
2023-04-16T00:21:45.653Z,220.6154
2023-04-16T00:22:48.328Z,223.3846
2023-04-16T00:23:50.823Z,221.4615
2023-04-16T00:24:53.438Z,226.4615
2023-04-16T00:25:55.990Z,221.0000
2023-04-16T00:26:58.746Z,221.0769
2023-04-16T00:28:01.227Z,220.3846
2023-04-16T00:29:04.031Z,217.0769
2023-04-16T00:30:06.413Z,223.6154
2023-04-16T00:31:09.047Z,221.6154
2023-04-16T00:32:11.569Z,223.5385
2023-04-16T00:33:14.250Z,226.3846
2023-04-16T00:34:16.741Z,223.0769
2023-04-16T00:35:19.341Z,220.6923
2023-04-16T00:36:21.901Z,221.6154
2023-04-16T00:37:25.682Z,224.4615
2023-04-16T00:38:27.064Z,229.0833
2023-04-16T00:39:29.694Z,227.6923
2023-04-16T00:40:32.239Z,229.4615
2023-04-16T00:41:34.848Z,227.5385
2023-04-16T00:42:37.404Z,232.0000
2023-04-16T00:43:40.016Z,223.8462
2023-04-16T00:44:42.586Z,230.3846
2023-04-16T00:45:45.250Z,229.5385
2023-04-16T00:46:47.800Z,228.4615
2023-04-16T00:47:50.363Z,225.3077
2023-04-16T00:48:53.184Z,229.9231
2023-04-16T00:49:55.538Z,236.8462
2023-04-16T00:50:58.070Z,226.3077
2023-04-16T00:52:00.930Z,230.7692
2023-04-16T00:53:03.243Z,231.5385
2023-04-16T00:54:05.833Z,231.2308
2023-04-16T00:55:08.393Z,229.4615
2023-04-16T00:56:11.023Z,234.3077
2023-04-16T00:57:13.623Z,235.3846
2023-04-16T00:58:16.369Z,234.4615
2023-04-16T00:59:18.958Z,232.6923
2023-04-16T01:00:21.348Z,232.3846
2023-04-16T01:01:24.004Z,231.0000
2023-04-16T01:02:26.637Z,234.6923
2023-04-16T01:03:29.391Z,232.7692
2023-04-16T01:04:31.731Z,229.3077
2023-04-16T01:05:34.209Z,229.5385
2023-04-16T01:06:36.813Z,228.4615
2023-04-16T01:07:39.391Z,228.9231
2023-04-16T01:08:42.005Z,236.1538
2023-04-16T01:09:44.535Z,233.6154
2023-04-16T01:10:47.138Z,232.5385
2023-04-16T01:11:49.698Z,234.2308
2023-04-16T01:12:52.305Z,232.5385
2023-04-16T01:13:55.097Z,235.6923
2023-04-16T01:14:57.472Z,233.2308
2023-04-16T01:16:00.101Z,234.3846
2023-04-16T01:17:02.654Z,240.4615
2023-04-16T01:18:05.492Z,235.3846
2023-04-16T01:20:10.357Z,236.6923
2023-04-16T01:21:12.966Z,232.6154
2023-04-16T01:22:15.524Z,232.7692
2023-04-16T01:23:18.129Z,250.3077
2023-04-16T01:24:20.688Z,242.6154
2023-04-16T01:25:23.551Z,235.6923
2023-04-16T01:26:25.856Z,250.0000
2023-04-16T01:27:28.459Z,236.0000
2023-04-16T01:28:31.028Z,231.2308
2023-04-16T01:29:33.669Z,235.9231
2023-04-16T01:30:36.200Z,234.0769
2023-04-16T01:31:38.836Z,234.0000
2023-04-16T01:32:41.399Z,235.9231
2023-04-16T01:33:43.967Z,235.4615
2023-04-16T01:34:46.524Z,239.9231
2023-04-16T01:35:49.152Z,241.5385
2023-04-16T01:36:51.688Z,239.5385
2023-04-16T01:37:54.684Z,239.7692
2023-04-16T01:38:56.867Z,236.8462
2023-04-16T01:39:59.473Z,237.0000
2023-04-16T01:41:02.039Z,241.2308
2023-04-16T01:42:04.786Z,237.4615
2023-04-16T01:43:07.195Z,239.3846
2023-04-16T01:44:09.802Z,239.6923
2023-04-16T01:45:12.364Z,238.9231
2023-04-16T01:46:15.004Z,244.6154
2023-04-16T01:47:17.532Z,245.4615
2023-04-16T01:48:20.137Z,238.5385
2023-04-16T01:49:22.697Z,245.7692
2023-04-16T01:50:25.469Z,243.0000
2023-04-16T01:51:27.872Z,239.6154
2023-04-16T01:52:30.497Z,246.0000
2023-04-16T01:53:33.844Z,235.8462
2023-04-16T01:54:35.846Z,240.6154
2023-04-16T01:55:38.201Z,243.0769
2023-04-16T01:56:40.807Z,240.5385
2023-04-16T01:57:43.529Z,245.8462
2023-04-16T01:58:45.980Z,242.7692
2023-04-16T01:59:48.538Z,239.6923
2023-04-16T02:00:51.163Z,238.4615
2023-04-16T02:01:53.981Z,246.0000
2023-04-16T02:02:56.424Z,251.6154
2023-04-16T02:03:58.937Z,243.1538
2023-04-16T02:05:01.476Z,245.5385
2023-04-16T02:06:04.042Z,279.6923
2023-04-16T02:07:06.788Z,245.7692
2023-04-16T02:08:09.214Z,247.7692
2023-04-16T02:09:11.912Z,246.0769
2023-04-16T02:10:14.658Z,241.3846
2023-04-16T02:11:16.979Z,243.1538
2023-04-16T02:12:19.542Z,242.8462
2023-04-16T02:13:22.385Z,245.0769
2023-04-16T02:14:24.717Z,243.5385
2023-04-16T02:15:27.325Z,246.6923
2023-04-16T02:16:29.908Z,247.0769
2023-04-16T02:17:32.587Z,249.0000
2023-04-16T02:18:35.043Z,261.9231
2023-04-16T02:19:37.649Z,248.6154
2023-04-16T02:20:40.215Z,247.1538
2023-04-16T02:21:42.859Z,256.0769
2023-04-16T02:22:45.383Z,243.7692
2023-04-16T02:23:47.991Z,256.8462
2023-04-16T02:24:50.542Z,222.3077
2023-04-16T02:25:53.158Z,223.0000
2023-04-16T02:26:55.712Z,281.6154
2023-04-16T02:27:58.321Z,236.4615
2023-04-16T02:29:01.144Z,233.5385
2023-04-16T02:30:03.496Z,240.2308
2023-04-16T02:31:06.044Z,224.0769
2023-04-16T02:32:08.964Z,227.7692
2023-04-16T02:33:11.210Z,224.9231
2023-04-16T02:34:13.818Z,227.0000
2023-04-16T02:35:16.382Z,231.6154
2023-04-16T02:36:19.341Z,231.8462
2023-04-16T02:37:21.549Z,230.4615
2023-04-16T02:38:24.202Z,266.3846
2023-04-16T02:39:26.734Z,237.6923
2023-04-16T02:40:29.314Z,232.3077
2023-04-16T02:41:31.895Z,232.0000
2023-04-16T02:42:34.477Z,261.2308
2023-04-16T02:43:37.044Z,236.7692
2023-04-16T02:44:39.659Z,233.6923
2023-04-16T02:45:42.250Z,237.6154
2023-04-16T02:46:44.812Z,242.0000
2023-04-16T02:47:47.410Z,239.7692
2023-04-16T02:48:49.973Z,238.4615
2023-04-16T02:49:52.524Z,235.0769
2023-04-16T02:50:55.129Z,242.6154
2023-04-16T02:51:57.689Z,236.4615
2023-04-16T02:53:00.305Z,236.0769
2023-04-16T02:54:02.860Z,241.3077
2023-04-16T02:55:05.766Z,239.8462
2023-04-16T02:56:08.065Z,237.0769
2023-04-16T02:57:10.633Z,237.1538
2023-04-16T02:58:13.210Z,238.2308
2023-04-16T02:59:15.805Z,239.6923
2023-04-16T03:00:18.352Z,238.7692
2023-04-16T03:01:21.000Z,241.3077
2023-04-16T03:02:23.601Z,236.5385
2023-04-16T03:03:26.284Z,239.8462
2023-04-16T03:04:49.675Z,240.7692
2023-04-16T03:05:31.264Z,249.0000
2023-04-16T03:06:33.907Z,240.0769
2023-04-16T03:07:36.438Z,238.6154
2023-04-16T03:08:39.053Z,238.1538
2023-04-16T03:09:41.695Z,239.0769
2023-04-16T03:10:44.202Z,237.6154
2023-04-16T03:11:46.765Z,235.9231
2023-04-16T03:12:49.372Z,239.2308
2023-04-16T03:13:51.930Z,243.2308
2023-04-16T03:14:54.539Z,241.4615
2023-04-16T03:15:57.111Z,247.4615
2023-04-16T03:16:59.952Z,240.9231
2023-04-16T03:18:02.355Z,240.8462
2023-04-16T03:19:04.881Z,243.0769
2023-04-16T03:20:07.435Z,243.9231
2023-04-16T03:21:10.035Z,241.0769
2023-04-16T03:22:12.596Z,239.4615
2023-04-16T03:23:15.194Z,244.0000
2023-04-16T03:24:17.755Z,239.2308
2023-04-16T03:25:20.364Z,241.3077
2023-04-16T03:26:22.915Z,238.8462
2023-04-16T03:27:25.525Z,238.3077
2023-04-16T03:28:28.092Z,244.4615
2023-04-16T03:29:30.691Z,236.3846
2023-04-16T03:30:33.264Z,240.2308
2023-04-16T03:31:35.901Z,237.5385
2023-04-16T03:32:38.476Z,235.5385
2023-04-16T03:33:41.025Z,240.0000
2023-04-16T03:34:43.586Z,249.7692
2023-04-16T03:35:46.203Z,236.7692
2023-04-16T03:36:48.757Z,241.5385
2023-04-16T03:37:51.358Z,240.5385
2023-04-16T03:38:53.914Z,234.6154
2023-04-16T03:39:56.524Z,240.7692
2023-04-16T03:40:59.079Z,234.9231
2023-04-16T03:42:01.687Z,237.6923
2023-04-16T03:43:04.234Z,235.6923
2023-04-16T03:44:06.841Z,239.6923
2023-04-16T03:45:09.502Z,243.6923
2023-04-16T03:46:12.040Z,244.3846
2023-04-16T03:47:14.573Z,239.7692
2023-04-16T03:48:17.195Z,239.3077
2023-04-16T03:49:19.738Z,237.5385
2023-04-16T03:50:22.335Z,236.2308
2023-04-16T03:51:24.889Z,250.6923
2023-04-16T03:52:27.499Z,239.1538
2023-04-16T03:53:30.054Z,239.6154
2023-04-16T03:54:32.672Z,240.0000
2023-04-16T03:55:35.216Z,241.6154
2023-04-16T03:56:37.799Z,234.1538
2023-04-16T03:57:40.412Z,246.0000
2023-04-16T03:58:42.987Z,235.4615
2023-04-16T03:59:45.569Z,255.4615
2023-04-16T04:00:48.280Z,239.4615
2023-04-16T04:01:50.860Z,236.2308
2023-04-16T04:02:53.437Z,239.7692
2023-04-16T04:03:56.126Z,239.8462
2023-04-16T04:04:58.667Z,238.0000
2023-04-16T04:06:01.051Z,236.3077
2023-04-16T04:07:03.676Z,264.8462
2023-04-16T04:08:06.394Z,246.1538
2023-04-16T04:09:09.037Z,252.9231
2023-04-16T04:10:11.687Z,242.6154
2023-04-16T04:11:13.945Z,245.6154
2023-04-16T04:12:16.553Z,243.6923
2023-04-16T04:13:19.102Z,233.4615
2023-04-16T04:14:21.718Z,234.6923
2023-04-16T04:15:24.259Z,232.6923
2023-04-16T04:16:26.908Z,239.0000
2023-04-16T04:17:29.449Z,232.9231
2023-04-16T04:18:32.038Z,230.5385
2023-04-16T04:19:34.609Z,244.0769
2023-04-16T04:20:37.204Z,235.6923
2023-04-16T04:21:39.751Z,234.2308
2023-04-16T04:22:42.354Z,239.5385
2023-04-16T04:23:44.920Z,241.2308
2023-04-16T04:24:47.522Z,235.4615
2023-04-16T04:25:50.206Z,241.0000
2023-04-16T04:26:52.678Z,240.4615
2023-04-16T04:27:55.237Z,238.5385
2023-04-16T04:28:58.091Z,233.3846
2023-04-16T04:30:00.422Z,233.3077
2023-04-16T04:31:03.022Z,239.4615
2023-04-16T04:32:05.613Z,232.7692
2023-04-16T04:33:08.570Z,236.8462
2023-04-16T04:34:10.797Z,241.9231
2023-04-16T04:35:13.411Z,256.0000
2023-04-16T04:36:15.953Z,232.0769
2023-04-16T04:37:18.569Z,231.3077
2023-04-16T04:38:21.126Z,234.6154
2023-04-16T04:39:23.732Z,235.6923
2023-04-16T04:40:26.295Z,244.1538
2023-04-16T04:41:28.919Z,238.0000
2023-04-16T04:42:31.459Z,236.6923
2023-04-16T04:43:34.057Z,240.9231
2023-04-16T04:44:36.622Z,239.2308
2023-04-16T04:45:39.388Z,236.8462
2023-04-16T04:46:41.773Z,241.7692
2023-04-16T04:47:44.398Z,236.6154
2023-04-16T04:48:46.961Z,237.6154
2023-04-16T04:49:49.544Z,234.3846
2023-04-16T04:50:52.102Z,235.6923
2023-04-16T04:51:54.713Z,239.0000
2023-04-16T04:52:57.444Z,234.6923
2023-04-16T04:53:59.870Z,237.4615
2023-04-16T04:55:02.448Z,240.9231
2023-04-16T04:56:11.792Z,251.0000
2023-04-16T04:57:08.590Z,233.6154
2023-04-16T04:58:10.196Z,233.8462
2023-04-16T04:59:12.759Z,232.2308
2023-04-16T05:00:15.365Z,230.6154
2023-04-16T05:01:17.947Z,231.6154
2023-04-16T05:02:20.807Z,232.6154
2023-04-16T05:03:23.180Z,234.7692
2023-04-16T05:04:25.705Z,236.5385
2023-04-16T05:05:28.285Z,236.8462
2023-04-16T05:06:30.911Z,254.5385
2023-04-16T05:07:33.418Z,237.8462
2023-04-16T05:08:36.253Z,231.7692
2023-04-16T05:09:38.594Z,236.6923
2023-04-16T05:10:41.195Z,235.9231
2023-04-16T05:11:43.754Z,235.9231
2023-04-16T05:12:48.243Z,231.4615
2023-04-16T05:13:48.917Z,232.6154
2023-04-16T05:14:51.531Z,235.9231
2023-04-16T05:15:54.317Z,240.6923
2023-04-16T05:16:56.785Z,236.0769
2023-04-16T05:17:59.291Z,241.2308
2023-04-16T05:19:01.872Z,242.6154
2023-04-16T05:20:04.399Z,233.9231
2023-04-16T05:21:07.018Z,235.2308
2023-04-16T05:22:09.573Z,234.6923
2023-04-16T05:23:12.446Z,235.0000
2023-04-16T05:24:15.147Z,233.5385
2023-04-16T05:25:17.359Z,238.0769
2023-04-16T05:26:20.411Z,240.0769
2023-04-16T05:27:22.513Z,241.9231
2023-04-16T05:28:25.069Z,236.8462
2023-04-16T05:29:27.695Z,232.4615
2023-04-16T05:30:30.247Z,234.1538
2023-04-16T05:31:32.840Z,239.7692
2023-04-16T05:32:35.811Z,234.8462
2023-04-16T05:33:38.013Z,255.0000
2023-04-16T05:34:40.559Z,236.2308
2023-04-16T05:35:43.189Z,234.1538
2023-04-16T05:36:45.724Z,262.7692
2023-04-16T05:37:48.337Z,235.6154
2023-04-16T05:38:50.885Z,231.9231
2023-04-16T05:39:53.488Z,239.0769
2023-04-16T05:40:56.057Z,235.6154
2023-04-16T05:41:58.666Z,240.5385
2023-04-16T05:43:01.226Z,243.6923
2023-04-16T05:44:03.834Z,240.2308
2023-04-16T05:45:06.399Z,237.9231
2023-04-16T05:46:09.072Z,241.5385
2023-04-16T05:47:11.560Z,242.0000
2023-04-16T05:48:14.158Z,235.3077
2023-04-16T05:49:16.710Z,237.7692
2023-04-16T05:50:19.330Z,240.9231
2023-04-16T05:51:21.876Z,237.9231
2023-04-16T05:52:24.477Z,236.9231
2023-04-16T05:53:28.260Z,236.2308
2023-04-16T05:54:29.656Z,237.0000
2023-04-16T05:55:32.221Z,238.6154
2023-04-16T05:56:34.813Z,233.3077
2023-04-16T05:57:37.376Z,231.6154
2023-04-16T05:58:39.988Z,233.6154
2023-04-16T05:59:42.545Z,232.0000
2023-04-16T06:00:45.151Z,235.2308
2023-04-16T06:01:47.778Z,236.7692
2023-04-16T06:02:50.456Z,239.5385
2023-04-16T06:03:53.015Z,238.6923
2023-04-16T06:04:55.489Z,236.6154
2023-04-16T06:05:58.177Z,238.3846
2023-04-16T06:07:00.645Z,244.7692
2023-04-16T06:08:03.207Z,245.2308
2023-04-16T06:09:05.816Z,248.7692
2023-04-16T06:10:08.377Z,240.3077
2023-04-16T06:11:10.983Z,244.9231
2023-04-16T06:12:13.549Z,237.9231
2023-04-16T06:13:16.159Z,236.4615
2023-04-16T06:14:18.703Z,234.0769
2023-04-16T06:15:21.318Z,239.1538
2023-04-16T06:16:23.923Z,233.9231
2023-04-16T06:17:26.601Z,233.2308
2023-04-16T06:18:29.039Z,236.9231
2023-04-16T06:19:31.646Z,241.5385
2023-04-16T06:20:34.217Z,241.1538
2023-04-16T06:21:36.817Z,236.1538
2023-04-16T06:22:39.381Z,243.9231
2023-04-16T06:23:42.003Z,241.5385
2023-04-16T06:24:44.541Z,239.2308
2023-04-16T06:25:47.321Z,242.6154
2023-04-16T06:26:49.722Z,237.9231
2023-04-16T06:27:52.323Z,237.5385
2023-04-16T06:28:54.887Z,235.3077
2023-04-16T06:29:57.506Z,237.3846
2023-04-16T06:31:00.117Z,238.0769
2023-04-16T06:32:02.657Z,236.7692
2023-04-16T06:33:05.507Z,240.9231
2023-04-16T06:34:07.858Z,246.4615
2023-04-16T06:35:10.394Z,237.7692
2023-04-16T06:36:13.105Z,234.4615
2023-04-16T06:37:15.553Z,236.8462
2023-04-16T06:38:18.172Z,240.6154
2023-04-16T06:39:20.723Z,240.8462
2023-04-16T06:40:23.350Z,240.3077
2023-04-16T06:41:25.901Z,237.7692
2023-04-16T06:42:28.516Z,236.5385
2023-04-16T06:43:31.106Z,239.4615
2023-04-16T06:44:33.689Z,239.5385
2023-04-16T06:45:36.241Z,236.8462
2023-04-16T06:46:38.907Z,238.3077
2023-04-16T06:47:41.604Z,241.0000
2023-04-16T06:48:44.016Z,240.2308
2023-04-16T06:49:46.575Z,240.8462
2023-04-16T06:50:49.194Z,239.3846
2023-04-16T06:51:51.888Z,241.8462
2023-04-16T06:52:54.357Z,241.6923
2023-04-16T06:53:56.917Z,238.2308
2023-04-16T06:54:59.520Z,240.4615
2023-04-16T06:56:02.283Z,246.6923
2023-04-16T06:57:04.690Z,253.6154
2023-04-16T06:58:07.247Z,240.5385
2023-04-16T06:59:10.069Z,240.0000
2023-04-16T07:00:12.450Z,242.6923
2023-04-16T07:01:15.028Z,239.8462
2023-04-16T07:02:17.697Z,243.3077
2023-04-16T07:03:20.286Z,244.3846
2023-04-16T07:04:22.804Z,243.9231
2023-04-16T07:05:25.351Z,243.2308
2023-04-16T07:06:27.948Z,243.3846
2023-04-16T07:07:30.526Z,247.7692
2023-04-16T07:08:33.111Z,246.6923
2023-04-16T07:09:35.693Z,244.6154
2023-04-16T07:10:38.287Z,243.0769
2023-04-16T07:11:40.839Z,243.4615
2023-04-16T07:12:43.450Z,246.5385
2023-04-16T07:13:46.006Z,243.0000
2023-04-16T07:14:48.608Z,244.4615
2023-04-16T07:15:51.172Z,290.6923
2023-04-16T07:16:53.895Z,261.1538
2023-04-16T07:17:56.418Z,250.5385
2023-04-16T07:18:58.944Z,242.6154
2023-04-16T07:20:01.531Z,239.6923
2023-04-16T07:21:04.106Z,238.9231
2023-04-16T07:22:06.668Z,251.8462
2023-04-16T07:23:09.294Z,257.6154
2023-04-16T07:24:11.832Z,269.2308
2023-04-16T07:25:14.453Z,263.3846
2023-04-16T07:26:17.028Z,255.0769
2023-04-16T07:27:19.623Z,260.4615
2023-04-16T07:28:22.181Z,301.5385
2023-04-16T07:29:24.791Z,312.7692
2023-04-16T07:30:27.356Z,284.0769
2023-04-16T07:31:29.985Z,290.7692
2023-04-16T07:32:32.889Z,304.3846
2023-04-16T07:33:35.122Z,311.3077
2023-04-16T07:34:37.685Z,301.3846
2023-04-16T07:35:40.550Z,304.0000
2023-04-16T07:36:42.861Z,303.7692
2023-04-16T07:37:45.463Z,309.5385
2023-04-16T07:38:48.016Z,306.2308
2023-04-16T07:39:50.628Z,302.2308
2023-04-16T07:40:53.184Z,299.2308
2023-04-16T07:41:55.810Z,314.9231
2023-04-16T07:42:58.354Z,318.2308
2023-04-16T07:44:00.964Z,319.4615
2023-04-16T07:45:03.524Z,318.2308
2023-04-16T07:46:06.225Z,314.3846
2023-04-16T07:47:08.690Z,322.6154
2023-04-16T07:48:11.307Z,319.9231
2023-04-16T07:49:13.868Z,318.9231
2023-04-16T07:50:16.460Z,326.1538
2023-04-16T07:51:19.010Z,328.8462
2023-04-16T07:52:21.621Z,336.4615
2023-04-16T07:53:24.164Z,326.6154
2023-04-16T07:54:28.862Z,336.0769
2023-04-16T07:55:29.334Z,348.8462
2023-04-16T07:56:31.931Z,329.7692
2023-04-16T07:57:34.487Z,329.0769
2023-04-16T07:58:37.150Z,324.6923
2023-04-16T07:59:39.791Z,338.5385
2023-04-16T08:00:42.483Z,343.2308
2023-04-16T08:01:44.809Z,352.3077
2023-04-16T08:02:47.510Z,367.8462
2023-04-16T08:03:50.136Z,385.1538
2023-04-16T08:04:52.731Z,383.2308
2023-04-16T08:05:55.135Z,391.4615
2023-04-16T08:06:57.736Z,389.9231
2023-04-16T08:08:00.295Z,387.3846
2023-04-16T08:09:02.901Z,375.1538
2023-04-16T08:10:05.470Z,371.6923
2023-04-16T08:11:08.058Z,379.7692
2023-04-16T08:12:10.623Z,410.7692
2023-04-16T08:13:13.218Z,413.6923
2023-04-16T08:14:15.777Z,392.4615
2023-04-16T08:15:18.381Z,393.3846
2023-04-16T08:16:20.966Z,399.1538
2023-04-16T08:17:23.693Z,383.4615
2023-04-16T08:18:26.282Z,402.9231
2023-04-16T08:19:28.709Z,429.6923
2023-04-16T08:20:31.286Z,444.0769
2023-04-16T08:21:33.875Z,441.6154
2023-04-16T08:22:36.437Z,442.9231
2023-04-16T08:23:39.033Z,357.9231
2023-04-16T08:24:41.600Z,249.6154
2023-04-16T08:25:44.187Z,306.3846
2023-04-16T08:26:46.761Z,458.6923
2023-04-16T08:27:49.361Z,485.6154
2023-04-16T08:28:51.915Z,621.3846
2023-04-16T08:29:54.532Z,767.1539
2023-04-16T08:30:57.140Z,737.2308
2023-04-16T08:31:59.767Z,796.5385
2023-04-16T08:33:02.275Z,705.3846
2023-04-16T08:34:04.868Z,816.9231
2023-04-16T08:35:07.420Z,905.3077
2023-04-16T08:36:10.020Z,970.1539
2023-04-16T08:37:12.594Z,994.2308
2023-04-16T08:38:15.183Z,979.0000
2023-04-16T08:39:17.813Z,1002.6154
2023-04-16T08:40:20.426Z,1018.7692
2023-04-16T08:41:22.974Z,1000.0000
2023-04-16T08:42:25.585Z,997.0769
2023-04-16T08:43:28.138Z,1009.9231
2023-04-16T08:44:30.751Z,1029.2307
2023-04-16T08:45:33.314Z,1034.6154
2023-04-16T08:46:35.913Z,1028.0769
2023-04-16T08:47:38.504Z,1034.1538
2023-04-16T08:48:41.066Z,1028.4615
2023-04-16T08:49:43.617Z,1026.1538
2023-04-16T08:50:46.235Z,1031.0769
2023-04-16T08:51:48.785Z,1071.6154
2023-04-16T08:52:51.395Z,1065.7693
2023-04-16T08:53:53.955Z,1075.4615
2023-04-16T08:54:57.247Z,1083.0000
2023-04-16T08:55:59.113Z,1094.0000
2023-04-16T08:57:01.719Z,1096.0769
2023-04-16T08:58:04.273Z,1099.6923
2023-04-16T08:59:07.120Z,1125.6923
2023-04-16T09:00:09.442Z,1114.1538
2023-04-16T09:01:12.044Z,1122.0769
2023-04-16T09:02:14.675Z,1104.1538
2023-04-16T09:03:17.887Z,1098.7693
2023-04-16T09:04:19.827Z,1124.3846
2023-04-16T09:05:22.388Z,1146.2307
2023-04-16T09:06:24.915Z,1169.6154
2023-04-16T09:07:27.536Z,1157.6154
2023-04-16T09:08:30.070Z,1290.7693
2023-04-16T09:09:34.542Z,1256.1538
2023-04-16T09:10:35.237Z,1321.3077
2023-04-16T09:11:38.124Z,1343.6923
2023-04-16T09:12:40.388Z,1279.0769
2023-04-16T09:13:42.990Z,1274.6154
2023-04-16T09:14:45.553Z,1300.1538
2023-04-16T09:15:48.159Z,1296.4615
2023-04-16T09:16:50.731Z,1310.7693
2023-04-16T09:17:53.365Z,1293.8462
2023-04-16T09:18:55.904Z,1325.3846
2023-04-16T09:19:58.484Z,1359.9231
2023-04-16T09:21:01.046Z,1411.0769
2023-04-16T09:22:03.659Z,1410.2307
2023-04-16T09:23:06.201Z,1413.5385
2023-04-16T09:24:08.856Z,1406.3846
2023-04-16T09:25:11.381Z,1406.5385
2023-04-16T09:26:13.981Z,1444.4615
2023-04-16T09:27:16.533Z,1458.0769
2023-04-16T09:28:19.140Z,1452.6154
2023-04-16T09:29:21.686Z,1445.3846
2023-04-16T09:30:24.345Z,1462.6154
2023-04-16T09:31:26.877Z,1471.0000
2023-04-16T09:32:29.519Z,1471.2307
2023-04-16T09:33:34.470Z,1528.1538
2023-04-16T09:34:34.638Z,1497.2307
2023-04-16T09:35:37.189Z,1468.5385
2023-04-16T09:36:39.801Z,1479.6923
2023-04-16T09:37:42.351Z,1297.0000
2023-04-16T09:38:44.961Z,1018.8461
2023-04-16T09:39:47.521Z,1038.0769
2023-04-16T09:40:50.125Z,1089.9231
2023-04-16T09:41:52.687Z,1099.1538
2023-04-16T09:42:55.286Z,1140.5385
2023-04-16T09:43:57.845Z,1186.3077
2023-04-16T09:45:02.645Z,1125.8462
2023-04-16T09:46:07.448Z,1052.2307
2023-04-16T09:47:06.651Z,1064.6154
2023-04-16T09:48:08.178Z,1073.1538
2023-04-16T09:49:11.050Z,1048.6923
2023-04-16T09:50:14.020Z,1046.0769
2023-04-16T09:51:15.948Z,1057.8462
2023-04-16T09:52:18.504Z,1082.7693
2023-04-16T09:53:21.111Z,1110.1538
2023-04-16T09:54:23.670Z,935.2308
2023-04-16T09:55:26.275Z,482.4615
2023-04-16T09:56:28.831Z,243.2308
2023-04-16T09:57:31.445Z,156.8462
2023-04-16T09:58:33.998Z,100.2308
2023-04-16T09:59:36.627Z,348.8462
2023-04-16T10:00:43.167Z,528.6923
2023-04-16T10:01:41.843Z,518.6923
2023-04-16T10:02:44.369Z,539.8461
2023-04-16T10:03:47.155Z,581.7692
2023-04-16T10:04:49.688Z,596.9231
2023-04-16T10:05:52.118Z,493.2308
2023-04-16T10:06:54.666Z,448.6154
2023-04-16T10:07:57.279Z,472.2308
2023-04-16T10:08:59.845Z,524.5385
2023-04-16T10:10:02.464Z,574.6923
2023-04-16T10:11:04.999Z,600.0000
2023-04-16T10:12:07.620Z,623.6154
2023-04-16T10:13:10.185Z,648.2308
2023-04-16T10:14:12.782Z,651.3077
2023-04-16T10:15:15.340Z,647.9231
2023-04-16T10:16:17.989Z,654.5385
2023-04-16T10:17:20.490Z,647.2308
2023-04-16T10:18:23.094Z,648.1539
2023-04-16T10:19:25.660Z,646.7692
2023-04-16T10:20:28.267Z,653.3846
2023-04-16T10:21:30.826Z,660.9231
2023-04-16T10:22:33.425Z,649.0000
2023-04-16T10:23:35.977Z,641.6154
2023-04-16T10:24:38.633Z,641.7692
2023-04-16T10:25:41.149Z,660.4615
2023-04-16T10:26:43.768Z,646.6923
2023-04-16T10:27:46.299Z,651.3077
2023-04-16T10:28:48.908Z,660.0000
2023-04-16T10:29:51.477Z,646.7692
2023-04-16T10:30:54.133Z,670.3846
2023-04-16T10:31:56.616Z,673.0000
2023-04-16T10:33:00.543Z,669.6923
2023-04-16T10:34:01.779Z,695.4615
2023-04-16T10:35:04.392Z,701.7692
2023-04-16T10:36:07.853Z,695.0000
2023-04-16T10:37:09.557Z,708.5385
2023-04-16T10:38:12.103Z,723.3846
2023-04-16T10:39:16.765Z,724.3077
2023-04-16T10:40:17.317Z,730.2308
2023-04-16T10:41:19.881Z,749.0769
2023-04-16T10:42:22.429Z,749.9231
2023-04-16T10:43:25.035Z,748.0769
2023-04-16T10:44:27.578Z,742.1539
2023-04-16T10:45:30.191Z,740.2308
2023-04-16T10:46:32.786Z,745.0000
2023-04-16T10:47:35.384Z,747.8461
2023-04-16T10:48:48.767Z,748.8461
2023-04-16T10:49:41.505Z,753.7692
2023-04-16T10:50:43.076Z,747.9231
2023-04-16T10:51:45.677Z,739.3846
2023-04-16T10:52:48.225Z,732.9231
2023-04-16T10:53:50.826Z,747.9231
2023-04-16T10:54:53.391Z,738.9231
2023-04-16T10:55:56.000Z,741.8461
2023-04-16T10:56:58.559Z,732.4615
2023-04-16T10:58:01.146Z,737.0000
2023-04-16T10:59:03.710Z,736.4615
2023-04-16T11:00:06.316Z,740.9231
2023-04-16T11:01:08.876Z,748.6154
2023-04-16T11:02:11.555Z,737.9231
2023-04-16T11:03:14.087Z,735.8461
2023-04-16T11:04:16.715Z,746.8461
2023-04-16T11:05:19.211Z,737.3077
2023-04-16T11:06:21.810Z,727.3077
2023-04-16T11:07:24.364Z,738.1539
2023-04-16T11:08:26.979Z,741.6923
2023-04-16T11:09:29.528Z,745.7692
2023-04-16T11:10:32.143Z,734.0000
2023-04-16T11:11:34.703Z,733.3846
2023-04-16T11:12:37.504Z,731.3846
2023-04-16T11:13:40.073Z,731.2308
2023-04-16T11:14:42.465Z,743.6923
2023-04-16T11:15:45.087Z,730.6154
2023-04-16T11:16:47.633Z,731.0769
2023-04-16T11:17:50.236Z,728.0769
2023-04-16T11:18:53.946Z,739.6154
2023-04-16T11:19:55.362Z,735.3846
2023-04-16T11:20:57.959Z,732.9231
2023-04-16T11:22:00.538Z,735.5385
2023-04-16T11:23:03.126Z,743.9231
2023-04-16T11:24:05.710Z,732.5385
2023-04-16T11:25:08.289Z,728.0769
2023-04-16T11:26:10.881Z,734.0769
2023-04-16T11:27:13.431Z,719.6923
2023-04-16T11:28:16.047Z,726.2308
2023-04-16T11:29:18.606Z,741.1539
2023-04-16T11:30:21.216Z,729.0000
2023-04-16T11:31:23.806Z,729.9231
2023-04-16T11:32:26.399Z,731.4615
2023-04-16T11:33:28.935Z,727.6923
2023-04-16T11:34:31.541Z,721.1539
2023-04-16T11:35:34.111Z,715.9231
2023-04-16T11:36:36.733Z,719.3846
2023-04-16T11:37:39.268Z,728.5385
2023-04-16T11:38:41.863Z,723.3846
2023-04-16T11:39:44.430Z,717.0000
2023-04-16T11:40:47.036Z,719.0769
2023-04-16T11:41:49.600Z,725.3846
2023-04-16T11:42:52.200Z,720.0000
2023-04-16T11:43:54.797Z,713.2308
2023-04-16T11:44:57.376Z,712.3846
2023-04-16T11:45:59.926Z,708.4615
2023-04-16T11:47:02.591Z,719.3077
2023-04-16T11:48:05.104Z,723.4615
2023-04-16T11:49:07.827Z,713.3077
2023-04-16T11:50:10.265Z,724.0769
2023-04-16T11:51:12.853Z,721.6154
2023-04-16T11:52:15.404Z,710.0000
2023-04-16T11:53:18.031Z,717.4615
2023-04-16T11:54:20.583Z,718.5385
2023-04-16T11:55:23.177Z,705.0769
2023-04-16T11:56:25.743Z,720.8461
2023-04-16T11:57:28.358Z,711.4615
2023-04-16T11:58:30.897Z,709.6923
2023-04-16T11:59:33.508Z,707.6923
2023-04-16T12:00:36.070Z,716.6154
2023-04-16T12:01:38.667Z,710.3077
2023-04-16T12:02:41.362Z,712.0000
2023-04-16T12:03:44.253Z,698.0000
2023-04-16T12:04:46.522Z,704.9231
2023-04-16T12:05:48.992Z,699.3077
2023-04-16T12:06:51.557Z,698.6154
2023-04-16T12:07:54.152Z,700.3077
2023-04-16T12:08:56.710Z,694.2308
2023-04-16T12:09:59.488Z,697.9231
2023-04-16T12:11:01.870Z,702.6923
2023-04-16T12:12:04.480Z,699.0000
2023-04-16T12:13:07.022Z,704.3846
2023-04-16T12:14:09.626Z,697.6154